sensor_id;sensor_type;location;lat;lon;timestamp;P1;durP1;ratioP1;P2;durP2;ratioP2
5785;SDS011;2919;48.630;9.000;2023-03-05T00:01:35;47.30;;;10.43;;
5785;SDS011;2919;48.630;9.000;2023-03-05T00:04:02;43.93;;;12.57;;
5785;SDS011;2919;48.630;9.000;2023-03-05T00:06:29;37.17;;;12.40;;
5785;SDS011;2919;48.630;9.000;2023-03-05T00:08:55;36.07;;;14.17;;
5785;SDS011;2919;48.630;9.000;2023-03-05T00:11:22;26.07;;;11.93;;
5785;SDS011;2919;48.630;9.000;2023-03-05T00:13:52;30.37;;;11.73;;
5785;SDS011;2919;48.630;9.000;2023-03-05T00:16:19;36.47;;;14.70;;
5785;SDS011;2919;48.630;9.000;2023-03-05T00:18:45;41.90;;;13.97;;
5785;SDS011;2919;48.630;9.000;2023-03-05T00:21:19;32.40;;;13.33;;
5785;SDS011;2919;48.630;9.000;2023-03-05T00:23:47;29.43;;;12.50;;
5785;SDS011;2919;48.630;9.000;2023-03-05T00:26:14;32.90;;;14.93;;
5785;SDS011;2919;48.630;9.000;2023-03-05T00:28:41;23.73;;;11.00;;
5785;SDS011;2919;48.630;9.000;2023-03-05T00:31:06;38.00;;;15.60;;
5785;SDS011;2919;48.630;9.000;2023-03-05T00:33:32;37.33;;;13.43;;
5785;SDS011;2919;48.630;9.000;2023-03-05T00:35:57;29.20;;;13.63;;
5785;SDS011;2919;48.630;9.000;2023-03-05T00:38:26;31.87;;;14.20;;
5785;SDS011;2919;48.630;9.000;2023-03-05T00:40:52;40.10;;;15.30;;
5785;SDS011;2919;48.630;9.000;2023-03-05T00:43:17;33.33;;;14.10;;
5785;SDS011;2919;48.630;9.000;2023-03-05T00:45:43;43.40;;;13.97;;
5785;SDS011;2919;48.630;9.000;2023-03-05T00:48:08;38.33;;;17.47;;
5785;SDS011;2919;48.630;9.000;2023-03-05T00:50:34;35.57;;;14.90;;
5785;SDS011;2919;48.630;9.000;2023-03-05T00:53:00;47.90;;;16.17;;
5785;SDS011;2919;48.630;9.000;2023-03-05T00:55:25;31.73;;;13.90;;
5785;SDS011;2919;48.630;9.000;2023-03-05T00:57:51;44.73;;;13.53;;
5785;SDS011;2919;48.630;9.000;2023-03-05T01:00:16;38.17;;;15.23;;
5785;SDS011;2919;48.630;9.000;2023-03-05T01:02:42;31.97;;;14.57;;
5785;SDS011;2919;48.630;9.000;2023-03-05T01:05:12;26.20;;;11.97;;
5785;SDS011;2919;48.630;9.000;2023-03-05T01:07:38;46.17;;;12.97;;
5785;SDS011;2919;48.630;9.000;2023-03-05T01:10:05;32.53;;;14.47;;
5785;SDS011;2919;48.630;9.000;2023-03-05T01:12:31;38.80;;;14.20;;
5785;SDS011;2919;48.630;9.000;2023-03-05T01:14:57;32.90;;;12.97;;
5785;SDS011;2919;48.630;9.000;2023-03-05T01:17:22;39.93;;;16.00;;
5785;SDS011;2919;48.630;9.000;2023-03-05T01:19:48;36.77;;;14.57;;
5785;SDS011;2919;48.630;9.000;2023-03-05T01:22:13;38.00;;;16.37;;
5785;SDS011;2919;48.630;9.000;2023-03-05T01:24:39;34.73;;;12.10;;
5785;SDS011;2919;48.630;9.000;2023-03-05T01:27:04;48.97;;;14.67;;
5785;SDS011;2919;48.630;9.000;2023-03-05T01:29:30;28.10;;;12.70;;
5785;SDS011;2919;48.630;9.000;2023-03-05T01:31:56;37.67;;;13.43;;
5785;SDS011;2919;48.630;9.000;2023-03-05T01:34:21;36.70;;;15.17;;
5785;SDS011;2919;48.630;9.000;2023-03-05T01:36:47;42.73;;;14.00;;
5785;SDS011;2919;48.630;9.000;2023-03-05T01:39:15;36.00;;;13.90;;
5785;SDS011;2919;48.630;9.000;2023-03-05T01:41:41;32.70;;;15.00;;
5785;SDS011;2919;48.630;9.000;2023-03-05T01:44:14;36.77;;;14.03;;
5785;SDS011;2919;48.630;9.000;2023-03-05T01:46:46;37.57;;;14.30;;
5785;SDS011;2919;48.630;9.000;2023-03-05T01:52:00;33.50;;;10.63;;
5785;SDS011;2919;48.630;9.000;2023-03-05T01:54:54;31.87;;;15.03;;
5785;SDS011;2919;48.630;9.000;2023-03-05T01:57:27;33.67;;;13.40;;
5785;SDS011;2919;48.630;9.000;2023-03-05T02:00:03;39.37;;;14.43;;
5785;SDS011;2919;48.630;9.000;2023-03-05T02:02:33;49.37;;;11.80;;
5785;SDS011;2919;48.630;9.000;2023-03-05T02:05:03;47.13;;;13.40;;
5785;SDS011;2919;48.630;9.000;2023-03-05T02:07:34;29.30;;;12.60;;
5785;SDS011;2919;48.630;9.000;2023-03-05T02:10:13;32.17;;;13.20;;
5785;SDS011;2919;48.630;9.000;2023-03-05T02:12:49;24.57;;;13.23;;
5785;SDS011;2919;48.630;9.000;2023-03-05T02:15:17;27.53;;;14.63;;
5785;SDS011;2919;48.630;9.000;2023-03-05T02:17:42;39.83;;;14.97;;
5785;SDS011;2919;48.630;9.000;2023-03-05T02:20:16;30.80;;;12.73;;
5785;SDS011;2919;48.630;9.000;2023-03-05T02:22:44;27.87;;;12.00;;
5785;SDS011;2919;48.630;9.000;2023-03-05T02:27:45;35.90;;;13.13;;
5785;SDS011;2919;48.630;9.000;2023-03-05T02:30:21;44.13;;;15.20;;
5785;SDS011;2919;48.630;9.000;2023-03-05T02:32:46;35.67;;;14.97;;
5785;SDS011;2919;48.630;9.000;2023-03-05T02:35:12;32.97;;;14.47;;
5785;SDS011;2919;48.630;9.000;2023-03-05T02:37:38;34.67;;;13.10;;
5785;SDS011;2919;48.630;9.000;2023-03-05T02:40:03;30.63;;;12.77;;
5785;SDS011;2919;48.630;9.000;2023-03-05T02:42:29;33.87;;;13.63;;
5785;SDS011;2919;48.630;9.000;2023-03-05T02:44:58;35.40;;;12.67;;
5785;SDS011;2919;48.630;9.000;2023-03-05T02:47:25;27.23;;;11.77;;
5785;SDS011;2919;48.630;9.000;2023-03-05T02:49:51;42.80;;;14.80;;
5785;SDS011;2919;48.630;9.000;2023-03-05T02:52:17;33.70;;;14.57;;
5785;SDS011;2919;48.630;9.000;2023-03-05T02:54:42;41.77;;;13.40;;
5785;SDS011;2919;48.630;9.000;2023-03-05T02:57:08;30.67;;;15.43;;
5785;SDS011;2919;48.630;9.000;2023-03-05T02:59:34;25.63;;;12.10;;
5785;SDS011;2919;48.630;9.000;2023-03-05T03:01:59;33.27;;;13.63;;
5785;SDS011;2919;48.630;9.000;2023-03-05T03:04:25;35.93;;;15.20;;
5785;SDS011;2919;48.630;9.000;2023-03-05T03:06:50;32.17;;;15.00;;
5785;SDS011;2919;48.630;9.000;2023-03-05T03:09:16;37.97;;;12.83;;
5785;SDS011;2919;48.630;9.000;2023-03-05T03:11:42;39.93;;;13.67;;
5785;SDS011;2919;48.630;9.000;2023-03-05T03:14:07;48.27;;;13.80;;
5785;SDS011;2919;48.630;9.000;2023-03-05T03:16:33;26.57;;;11.80;;
5785;SDS011;2919;48.630;9.000;2023-03-05T03:18:59;31.40;;;12.67;;
5785;SDS011;2919;48.630;9.000;2023-03-05T03:21:25;38.63;;;12.13;;
5785;SDS011;2919;48.630;9.000;2023-03-05T03:23:51;39.87;;;16.07;;
5785;SDS011;2919;48.630;9.000;2023-03-05T03:26:17;32.13;;;12.43;;
5785;SDS011;2919;48.630;9.000;2023-03-05T03:28:43;27.30;;;11.47;;
5785;SDS011;2919;48.630;9.000;2023-03-05T03:31:08;41.40;;;16.00;;
5785;SDS011;2919;48.630;9.000;2023-03-05T03:33:34;46.33;;;13.30;;
5785;SDS011;2919;48.630;9.000;2023-03-05T03:36:00;44.20;;;13.17;;
5785;SDS011;2919;48.630;9.000;2023-03-05T03:38:26;34.50;;;13.67;;
5785;SDS011;2919;48.630;9.000;2023-03-05T03:40:51;37.00;;;13.90;;
5785;SDS011;2919;48.630;9.000;2023-03-05T03:43:17;31.63;;;12.33;;
5785;SDS011;2919;48.630;9.000;2023-03-05T03:45:43;36.00;;;13.67;;
5785;SDS011;2919;48.630;9.000;2023-03-05T03:48:09;47.80;;;12.90;;
5785;SDS011;2919;48.630;9.000;2023-03-05T03:50:41;39.37;;;12.00;;
5785;SDS011;2919;48.630;9.000;2023-03-05T03:53:08;33.20;;;13.90;;
5785;SDS011;2919;48.630;9.000;2023-03-05T03:55:38;23.00;;;11.10;;
5785;SDS011;2919;48.630;9.000;2023-03-05T03:58:04;35.43;;;12.70;;
5785;SDS011;2919;48.630;9.000;2023-03-05T04:00:29;44.80;;;11.73;;
5785;SDS011;2919;48.630;9.000;2023-03-05T04:02:55;28.53;;;11.70;;
5785;SDS011;2919;48.630;9.000;2023-03-05T04:05:21;37.00;;;12.80;;
5785;SDS011;2919;48.630;9.000;2023-03-05T04:07:46;29.33;;;13.00;;
5785;SDS011;2919;48.630;9.000;2023-03-05T04:10:12;30.10;;;13.70;;
5785;SDS011;2919;48.630;9.000;2023-03-05T04:12:38;37.63;;;14.93;;
5785;SDS011;2919;48.630;9.000;2023-03-05T04:15:03;32.97;;;13.27;;
5785;SDS011;2919;48.630;9.000;2023-03-05T04:17:31;32.83;;;13.13;;
5785;SDS011;2919;48.630;9.000;2023-03-05T04:19:57;27.40;;;12.43;;
5785;SDS011;2919;48.630;9.000;2023-03-05T04:22:23;31.97;;;10.60;;
5785;SDS011;2919;48.630;9.000;2023-03-05T04:24:48;38.13;;;13.40;;
5785;SDS011;2919;48.630;9.000;2023-03-05T04:27:14;30.00;;;13.10;;
5785;SDS011;2919;48.630;9.000;2023-03-05T04:29:40;27.07;;;12.57;;
5785;SDS011;2919;48.630;9.000;2023-03-05T04:32:05;31.83;;;12.50;;
5785;SDS011;2919;48.630;9.000;2023-03-05T04:34:31;30.40;;;11.13;;
5785;SDS011;2919;48.630;9.000;2023-03-05T04:36:57;38.80;;;13.37;;
5785;SDS011;2919;48.630;9.000;2023-03-05T04:39:23;23.77;;;10.57;;
5785;SDS011;2919;48.630;9.000;2023-03-05T04:41:49;33.83;;;13.30;;
5785;SDS011;2919;48.630;9.000;2023-03-05T04:44:14;34.07;;;11.80;;
5785;SDS011;2919;48.630;9.000;2023-03-05T04:46:41;27.93;;;12.43;;
5785;SDS011;2919;48.630;9.000;2023-03-05T04:49:07;30.50;;;12.20;;
5785;SDS011;2919;48.630;9.000;2023-03-05T04:51:33;26.47;;;10.60;;
5785;SDS011;2919;48.630;9.000;2023-03-05T04:53:59;24.17;;;10.73;;
5785;SDS011;2919;48.630;9.000;2023-03-05T04:56:24;31.53;;;10.77;;
5785;SDS011;2919;48.630;9.000;2023-03-05T04:58:50;25.93;;;11.50;;
5785;SDS011;2919;48.630;9.000;2023-03-05T05:01:16;27.63;;;11.67;;
5785;SDS011;2919;48.630;9.000;2023-03-05T05:03:41;39.87;;;11.87;;
5785;SDS011;2919;48.630;9.000;2023-03-05T05:06:07;42.53;;;14.53;;
5785;SDS011;2919;48.630;9.000;2023-03-05T05:08:33;28.40;;;11.60;;
5785;SDS011;2919;48.630;9.000;2023-03-05T05:10:59;36.73;;;12.60;;
5785;SDS011;2919;48.630;9.000;2023-03-05T05:13:26;27.37;;;13.20;;
5785;SDS011;2919;48.630;9.000;2023-03-05T05:15:52;25.87;;;10.27;;
5785;SDS011;2919;48.630;9.000;2023-03-05T05:18:18;26.03;;;11.13;;
5785;SDS011;2919;48.630;9.000;2023-03-05T05:20:44;25.00;;;11.57;;
5785;SDS011;2919;48.630;9.000;2023-03-05T05:23:10;18.93;;;9.03;;
5785;SDS011;2919;48.630;9.000;2023-03-05T05:25:35;33.03;;;10.17;;
5785;SDS011;2919;48.630;9.000;2023-03-05T05:28:01;27.20;;;11.70;;
5785;SDS011;2919;48.630;9.000;2023-03-05T05:30:27;26.00;;;10.80;;
5785;SDS011;2919;48.630;9.000;2023-03-05T05:32:52;24.80;;;9.87;;
5785;SDS011;2919;48.630;9.000;2023-03-05T05:35:18;22.23;;;10.27;;
5785;SDS011;2919;48.630;9.000;2023-03-05T05:37:43;30.40;;;11.50;;
5785;SDS011;2919;48.630;9.000;2023-03-05T05:40:09;20.40;;;9.87;;
5785;SDS011;2919;48.630;9.000;2023-03-05T05:42:35;26.33;;;10.40;;
5785;SDS011;2919;48.630;9.000;2023-03-05T05:45:01;22.40;;;9.60;;
5785;SDS011;2919;48.630;9.000;2023-03-05T05:47:28;23.33;;;10.20;;
5785;SDS011;2919;48.630;9.000;2023-03-05T05:49:54;25.37;;;8.80;;
5785;SDS011;2919;48.630;9.000;2023-03-05T05:52:21;32.93;;;10.43;;
5785;SDS011;2919;48.630;9.000;2023-03-05T05:54:47;31.80;;;11.37;;
5785;SDS011;2919;48.630;9.000;2023-03-05T05:57:13;26.87;;;11.07;;
5785;SDS011;2919;48.630;9.000;2023-03-05T05:59:39;30.80;;;11.07;;
5785;SDS011;2919;48.630;9.000;2023-03-05T06:02:05;25.50;;;10.70;;
5785;SDS011;2919;48.630;9.000;2023-03-05T06:04:32;22.97;;;10.07;;
5785;SDS011;2919;48.630;9.000;2023-03-05T06:06:58;35.20;;;11.50;;
5785;SDS011;2919;48.630;9.000;2023-03-05T06:09:24;28.17;;;10.60;;
5785;SDS011;2919;48.630;9.000;2023-03-05T06:11:50;26.50;;;11.67;;
5785;SDS011;2919;48.630;9.000;2023-03-05T06:14:16;23.83;;;11.20;;
5785;SDS011;2919;48.630;9.000;2023-03-05T06:16:42;28.13;;;13.50;;
5785;SDS011;2919;48.630;9.000;2023-03-05T06:19:08;30.43;;;13.03;;
5785;SDS011;2919;48.630;9.000;2023-03-05T06:21:36;26.83;;;11.80;;
5785;SDS011;2919;48.630;9.000;2023-03-05T06:24:01;33.53;;;13.30;;
5785;SDS011;2919;48.630;9.000;2023-03-05T06:26:27;21.17;;;9.67;;
5785;SDS011;2919;48.630;9.000;2023-03-05T06:28:53;29.67;;;10.77;;
5785;SDS011;2919;48.630;9.000;2023-03-05T06:31:20;37.13;;;11.53;;
5785;SDS011;2919;48.630;9.000;2023-03-05T06:33:47;24.03;;;11.30;;
5785;SDS011;2919;48.630;9.000;2023-03-05T06:36:14;25.30;;;12.67;;
5785;SDS011;2919;48.630;9.000;2023-03-05T06:38:41;24.47;;;10.17;;
5785;SDS011;2919;48.630;9.000;2023-03-05T06:41:08;31.90;;;12.20;;
5785;SDS011;2919;48.630;9.000;2023-03-05T06:43:37;31.87;;;10.43;;
5785;SDS011;2919;48.630;9.000;2023-03-05T06:46:05;28.10;;;10.80;;
5785;SDS011;2919;48.630;9.000;2023-03-05T06:48:33;30.43;;;11.50;;
5785;SDS011;2919;48.630;9.000;2023-03-05T06:50:59;20.23;;;10.07;;
5785;SDS011;2919;48.630;9.000;2023-03-05T06:53:25;24.07;;;9.47;;
5785;SDS011;2919;48.630;9.000;2023-03-05T06:55:51;18.50;;;9.67;;
5785;SDS011;2919;48.630;9.000;2023-03-05T06:58:17;26.33;;;10.50;;
5785;SDS011;2919;48.630;9.000;2023-03-05T07:00:43;30.83;;;12.00;;
5785;SDS011;2919;48.630;9.000;2023-03-05T07:03:09;27.57;;;11.90;;
5785;SDS011;2919;48.630;9.000;2023-03-05T07:05:39;29.77;;;10.13;;
5785;SDS011;2919;48.630;9.000;2023-03-05T07:08:05;26.83;;;9.87;;
5785;SDS011;2919;48.630;9.000;2023-03-05T07:10:31;29.53;;;9.27;;
5785;SDS011;2919;48.630;9.000;2023-03-05T07:13:01;19.40;;;10.17;;
5785;SDS011;2919;48.630;9.000;2023-03-05T07:15:26;24.87;;;9.30;;
5785;SDS011;2919;48.630;9.000;2023-03-05T07:17:52;23.80;;;11.03;;
5785;SDS011;2919;48.630;9.000;2023-03-05T07:20:18;29.27;;;11.37;;
5785;SDS011;2919;48.630;9.000;2023-03-05T07:22:43;36.67;;;12.03;;
5785;SDS011;2919;48.630;9.000;2023-03-05T07:25:09;30.47;;;10.80;;
5785;SDS011;2919;48.630;9.000;2023-03-05T07:27:35;21.70;;;9.67;;
5785;SDS011;2919;48.630;9.000;2023-03-05T07:30:02;26.57;;;10.93;;
5785;SDS011;2919;48.630;9.000;2023-03-05T07:32:28;26.93;;;10.60;;
5785;SDS011;2919;48.630;9.000;2023-03-05T07:34:54;30.13;;;10.47;;
5785;SDS011;2919;48.630;9.000;2023-03-05T07:37:19;25.37;;;10.10;;
5785;SDS011;2919;48.630;9.000;2023-03-05T07:39:45;29.03;;;11.13;;
5785;SDS011;2919;48.630;9.000;2023-03-05T07:42:11;27.73;;;11.13;;
5785;SDS011;2919;48.630;9.000;2023-03-05T07:44:36;43.40;;;13.30;;
5785;SDS011;2919;48.630;9.000;2023-03-05T07:47:03;26.83;;;11.00;;
5785;SDS011;2919;48.630;9.000;2023-03-05T07:49:29;31.30;;;10.07;;
5785;SDS011;2919;48.630;9.000;2023-03-05T07:51:54;32.43;;;10.43;;
5785;SDS011;2919;48.630;9.000;2023-03-05T07:54:20;26.87;;;9.50;;
5785;SDS011;2919;48.630;9.000;2023-03-05T07:56:45;20.90;;;9.60;;
5785;SDS011;2919;48.630;9.000;2023-03-05T07:59:11;21.77;;;10.70;;
5785;SDS011;2919;48.630;9.000;2023-03-05T08:01:37;25.00;;;9.60;;
5785;SDS011;2919;48.630;9.000;2023-03-05T08:04:04;27.63;;;9.80;;
5785;SDS011;2919;48.630;9.000;2023-03-05T08:06:30;27.50;;;10.00;;
5785;SDS011;2919;48.630;9.000;2023-03-05T08:08:56;22.57;;;9.80;;
5785;SDS011;2919;48.630;9.000;2023-03-05T08:11:22;19.43;;;8.80;;
5785;SDS011;2919;48.630;9.000;2023-03-05T08:13:47;23.57;;;11.00;;
5785;SDS011;2919;48.630;9.000;2023-03-05T08:16:14;19.60;;;9.37;;
5785;SDS011;2919;48.630;9.000;2023-03-05T08:18:44;38.50;;;10.80;;
5785;SDS011;2919;48.630;9.000;2023-03-05T08:21:23;30.60;;;10.70;;
5785;SDS011;2919;48.630;9.000;2023-03-05T08:23:57;27.27;;;9.80;;
5785;SDS011;2919;48.630;9.000;2023-03-05T08:26:23;25.37;;;9.63;;
5785;SDS011;2919;48.630;9.000;2023-03-05T08:28:51;23.70;;;9.57;;
5785;SDS011;2919;48.630;9.000;2023-03-05T08:31:17;18.07;;;7.57;;
5785;SDS011;2919;48.630;9.000;2023-03-05T08:33:45;25.20;;;10.03;;
5785;SDS011;2919;48.630;9.000;2023-03-05T08:36:11;30.60;;;10.63;;
5785;SDS011;2919;48.630;9.000;2023-03-05T08:38:37;30.07;;;10.20;;
5785;SDS011;2919;48.630;9.000;2023-03-05T08:41:03;27.07;;;10.87;;
5785;SDS011;2919;48.630;9.000;2023-03-05T08:43:29;35.30;;;9.10;;
5785;SDS011;2919;48.630;9.000;2023-03-05T08:45:55;29.73;;;9.00;;
5785;SDS011;2919;48.630;9.000;2023-03-05T08:48:21;23.60;;;8.87;;
5785;SDS011;2919;48.630;9.000;2023-03-05T08:50:47;16.70;;;7.97;;
5785;SDS011;2919;48.630;9.000;2023-03-05T08:53:13;23.33;;;9.07;;
5785;SDS011;2919;48.630;9.000;2023-03-05T08:55:39;18.77;;;9.67;;
5785;SDS011;2919;48.630;9.000;2023-03-05T08:58:05;22.97;;;8.40;;
5785;SDS011;2919;48.630;9.000;2023-03-05T09:00:30;19.97;;;8.33;;
5785;SDS011;2919;48.630;9.000;2023-03-05T09:02:56;22.37;;;8.47;;
5785;SDS011;2919;48.630;9.000;2023-03-05T09:05:22;16.70;;;9.70;;
5785;SDS011;2919;48.630;9.000;2023-03-05T09:07:47;20.97;;;8.03;;
5785;SDS011;2919;48.630;9.000;2023-03-05T09:10:13;21.40;;;9.60;;
5785;SDS011;2919;48.630;9.000;2023-03-05T09:12:39;21.30;;;9.87;;
5785;SDS011;2919;48.630;9.000;2023-03-05T09:15:06;18.50;;;8.27;;
5785;SDS011;2919;48.630;9.000;2023-03-05T09:17:33;20.83;;;8.50;;
5785;SDS011;2919;48.630;9.000;2023-03-05T09:20:03;25.80;;;11.53;;
5785;SDS011;2919;48.630;9.000;2023-03-05T09:22:30;15.53;;;8.40;;
5785;SDS011;2919;48.630;9.000;2023-03-05T09:24:56;17.43;;;7.77;;
5785;SDS011;2919;48.630;9.000;2023-03-05T09:27:22;18.80;;;8.60;;
5785;SDS011;2919;48.630;9.000;2023-03-05T09:29:48;17.87;;;8.17;;
5785;SDS011;2919;48.630;9.000;2023-03-05T09:32:14;17.77;;;7.67;;
5785;SDS011;2919;48.630;9.000;2023-03-05T09:34:39;22.03;;;8.43;;
5785;SDS011;2919;48.630;9.000;2023-03-05T09:37:05;18.20;;;7.10;;
5785;SDS011;2919;48.630;9.000;2023-03-05T09:39:32;19.70;;;8.40;;
5785;SDS011;2919;48.630;9.000;2023-03-05T09:42:10;14.70;;;6.70;;
5785;SDS011;2919;48.630;9.000;2023-03-05T09:44:45;21.03;;;9.50;;
5785;SDS011;2919;48.630;9.000;2023-03-05T09:47:42;14.73;;;7.13;;
5785;SDS011;2919;48.630;9.000;2023-03-05T09:50:33;15.37;;;7.20;;
5785;SDS011;2919;48.630;9.000;2023-03-05T09:58:15;22.50;;;7.87;;
5785;SDS011;2919;48.630;9.000;2023-03-05T10:00:51;23.93;;;9.63;;
5785;SDS011;2919;48.630;9.000;2023-03-05T10:03:26;16.37;;;8.07;;
5785;SDS011;2919;48.630;9.000;2023-03-05T10:06:08;18.40;;;9.30;;
5785;SDS011;2919;48.630;9.000;2023-03-05T10:09:03;19.23;;;7.20;;
5785;SDS011;2919;48.630;9.000;2023-03-05T10:14:01;24.83;;;9.10;;
5785;SDS011;2919;48.630;9.000;2023-03-05T10:19:09;18.47;;;7.00;;
5785;SDS011;2919;48.630;9.000;2023-03-05T10:22:31;16.17;;;7.77;;
5785;SDS011;2919;48.630;9.000;2023-03-05T10:27:22;16.33;;;8.70;;
5785;SDS011;2919;48.630;9.000;2023-03-05T10:30:17;33.97;;;8.10;;
5785;SDS011;2919;48.630;9.000;2023-03-05T10:43:51;20.27;;;7.37;;
5785;SDS011;2919;48.630;9.000;2023-03-05T10:46:29;15.00;;;7.37;;
5785;SDS011;2919;48.630;9.000;2023-03-05T10:49:01;25.60;;;8.90;;
5785;SDS011;2919;48.630;9.000;2023-03-05T10:51:40;17.23;;;8.77;;
5785;SDS011;2919;48.630;9.000;2023-03-05T10:54:18;19.77;;;9.37;;
5785;SDS011;2919;48.630;9.000;2023-03-05T10:57:00;19.33;;;8.33;;
5785;SDS011;2919;48.630;9.000;2023-03-05T10:59:57;18.13;;;8.70;;
5785;SDS011;2919;48.630;9.000;2023-03-05T11:02:31;22.53;;;8.73;;
5785;SDS011;2919;48.630;9.000;2023-03-05T11:04:58;28.17;;;9.50;;
5785;SDS011;2919;48.630;9.000;2023-03-05T11:12:28;16.50;;;7.10;;
5785;SDS011;2919;48.630;9.000;2023-03-05T11:25:52;19.57;;;7.80;;
5785;SDS011;2919;48.630;9.000;2023-03-05T11:28:23;14.50;;;7.63;;
5785;SDS011;2919;48.630;9.000;2023-03-05T11:33:25;20.47;;;7.77;;
5785;SDS011;2919;48.630;9.000;2023-03-05T11:35:51;21.43;;;9.00;;
5785;SDS011;2919;48.630;9.000;2023-03-05T11:38:36;18.90;;;9.63;;
5785;SDS011;2919;48.630;9.000;2023-03-05T11:41:11;22.37;;;8.07;;
5785;SDS011;2919;48.630;9.000;2023-03-05T11:43:37;25.87;;;9.17;;
5785;SDS011;2919;48.630;9.000;2023-03-05T11:46:05;16.80;;;7.20;;
5785;SDS011;2919;48.630;9.000;2023-03-05T11:48:35;18.93;;;6.17;;
5785;SDS011;2919;48.630;9.000;2023-03-05T11:51:06;20.27;;;8.47;;
5785;SDS011;2919;48.630;9.000;2023-03-05T11:53:39;14.33;;;6.30;;
5785;SDS011;2919;48.630;9.000;2023-03-05T11:56:15;12.47;;;5.90;;
5785;SDS011;2919;48.630;9.000;2023-03-05T12:01:39;14.90;;;7.80;;
5785;SDS011;2919;48.630;9.000;2023-03-05T12:04:10;25.90;;;8.10;;
5785;SDS011;2919;48.630;9.000;2023-03-05T12:09:10;31.27;;;9.27;;
5785;SDS011;2919;48.630;9.000;2023-03-05T12:12:06;19.67;;;7.20;;
5785;SDS011;2919;48.630;9.000;2023-03-05T12:14:55;16.17;;;7.53;;
5785;SDS011;2919;48.630;9.000;2023-03-05T12:17:52;24.30;;;7.83;;
5785;SDS011;2919;48.630;9.000;2023-03-05T12:23:01;21.20;;;7.67;;
5785;SDS011;2919;48.630;9.000;2023-03-05T12:25:34;19.57;;;7.50;;
5785;SDS011;2919;48.630;9.000;2023-03-05T12:28:15;20.50;;;6.90;;
5785;SDS011;2919;48.630;9.000;2023-03-05T12:31:11;18.27;;;7.73;;
5785;SDS011;2919;48.630;9.000;2023-03-05T12:33:59;16.10;;;7.20;;
5785;SDS011;2919;48.630;9.000;2023-03-05T12:37:03;16.43;;;8.10;;
5785;SDS011;2919;48.630;9.000;2023-03-05T12:47:45;23.67;;;9.80;;
5785;SDS011;2919;48.630;9.000;2023-03-05T12:55:36;26.30;;;10.27;;
5785;SDS011;2919;48.630;9.000;2023-03-05T12:58:24;29.90;;;9.70;;
5785;SDS011;2919;48.630;9.000;2023-03-05T13:04:10;20.33;;;9.50;;
5785;SDS011;2919;48.630;9.000;2023-03-05T13:06:41;22.60;;;9.87;;
5785;SDS011;2919;48.630;9.000;2023-03-05T13:12:03;21.57;;;8.80;;
5785;SDS011;2919;48.630;9.000;2023-03-05T13:14:45;19.67;;;7.27;;
5785;SDS011;2919;48.630;9.000;2023-03-05T13:20:03;21.13;;;9.40;;
5785;SDS011;2919;48.630;9.000;2023-03-05T13:22:47;19.57;;;8.43;;
5785;SDS011;2919;48.630;9.000;2023-03-05T13:25:27;21.30;;;8.90;;
5785;SDS011;2919;48.630;9.000;2023-03-05T13:28:00;20.67;;;8.13;;
5785;SDS011;2919;48.630;9.000;2023-03-05T13:30:28;23.03;;;8.40;;
5785;SDS011;2919;48.630;9.000;2023-03-05T13:32:55;22.47;;;8.93;;
5785;SDS011;2919;48.630;9.000;2023-03-05T13:35:26;14.03;;;8.03;;
5785;SDS011;2919;48.630;9.000;2023-03-05T13:37:53;18.47;;;7.50;;
5785;SDS011;2919;48.630;9.000;2023-03-05T13:42:44;21.70;;;8.00;;
5785;SDS011;2919;48.630;9.000;2023-03-05T13:47:52;18.00;;;8.83;;
5785;SDS011;2919;48.630;9.000;2023-03-05T13:52:55;20.73;;;9.20;;
5785;SDS011;2919;48.630;9.000;2023-03-05T13:55:37;18.60;;;7.73;;
5785;SDS011;2919;48.630;9.000;2023-03-05T13:58:03;24.17;;;7.83;;
5785;SDS011;2919;48.630;9.000;2023-03-05T14:00:30;18.00;;;7.20;;
5785;SDS011;2919;48.630;9.000;2023-03-05T14:03:09;16.87;;;7.13;;
5785;SDS011;2919;48.630;9.000;2023-03-05T14:05:44;16.00;;;8.87;;
5785;SDS011;2919;48.630;9.000;2023-03-05T14:08:17;25.77;;;8.30;;
5785;SDS011;2919;48.630;9.000;2023-03-05T14:10:48;20.63;;;7.70;;
5785;SDS011;2919;48.630;9.000;2023-03-05T14:13:18;19.93;;;7.80;;
5785;SDS011;2919;48.630;9.000;2023-03-05T14:18:58;18.50;;;7.20;;
5785;SDS011;2919;48.630;9.000;2023-03-05T14:21:40;17.40;;;7.37;;
5785;SDS011;2919;48.630;9.000;2023-03-05T14:24:21;18.17;;;7.90;;
5785;SDS011;2919;48.630;9.000;2023-03-05T14:26:55;25.83;;;8.30;;
5785;SDS011;2919;48.630;9.000;2023-03-05T14:29:37;11.00;;;5.13;;
5785;SDS011;2919;48.630;9.000;2023-03-05T14:32:16;13.50;;;6.50;;
5785;SDS011;2919;48.630;9.000;2023-03-05T14:34:48;22.33;;;6.77;;
5785;SDS011;2919;48.630;9.000;2023-03-05T14:37:34;14.50;;;8.00;;
5785;SDS011;2919;48.630;9.000;2023-03-05T14:40:15;21.10;;;7.83;;
5785;SDS011;2919;48.630;9.000;2023-03-05T14:42:50;19.57;;;8.13;;
5785;SDS011;2919;48.630;9.000;2023-03-05T14:45:34;17.77;;;8.20;;
5785;SDS011;2919;48.630;9.000;2023-03-05T14:48:02;19.20;;;8.20;;
5785;SDS011;2919;48.630;9.000;2023-03-05T14:50:50;33.20;;;9.80;;
5785;SDS011;2919;48.630;9.000;2023-03-05T14:53:23;18.87;;;7.40;;
5785;SDS011;2919;48.630;9.000;2023-03-05T14:55:52;19.50;;;6.70;;
5785;SDS011;2919;48.630;9.000;2023-03-05T14:58:21;25.10;;;7.23;;
5785;SDS011;2919;48.630;9.000;2023-03-05T15:00:56;23.33;;;7.77;;
5785;SDS011;2919;48.630;9.000;2023-03-05T15:03:23;24.83;;;8.70;;
5785;SDS011;2919;48.630;9.000;2023-03-05T15:05:53;20.97;;;7.67;;
5785;SDS011;2919;48.630;9.000;2023-03-05T15:08:22;21.20;;;8.13;;
5785;SDS011;2919;48.630;9.000;2023-03-05T15:10:52;21.50;;;8.13;;
5785;SDS011;2919;48.630;9.000;2023-03-05T15:13:18;17.53;;;7.23;;
5785;SDS011;2919;48.630;9.000;2023-03-05T15:15:45;18.10;;;7.30;;
5785;SDS011;2919;48.630;9.000;2023-03-05T15:18:14;19.73;;;7.40;;
5785;SDS011;2919;48.630;9.000;2023-03-05T15:20:41;21.47;;;7.90;;
5785;SDS011;2919;48.630;9.000;2023-03-05T15:23:07;18.53;;;7.80;;
5785;SDS011;2919;48.630;9.000;2023-03-05T15:25:33;19.43;;;6.67;;
5785;SDS011;2919;48.630;9.000;2023-03-05T15:27:59;14.73;;;6.30;;
5785;SDS011;2919;48.630;9.000;2023-03-05T15:32:53;18.10;;;7.40;;
5785;SDS011;2919;48.630;9.000;2023-03-05T15:35:20;15.97;;;7.80;;
5785;SDS011;2919;48.630;9.000;2023-03-05T15:37:46;16.00;;;7.80;;
5785;SDS011;2919;48.630;9.000;2023-03-05T15:40:12;16.70;;;7.63;;
5785;SDS011;2919;48.630;9.000;2023-03-05T15:42:38;19.93;;;8.90;;
5785;SDS011;2919;48.630;9.000;2023-03-05T15:45:04;18.93;;;7.93;;
5785;SDS011;2919;48.630;9.000;2023-03-05T15:47:30;15.30;;;7.27;;
5785;SDS011;2919;48.630;9.000;2023-03-05T15:49:56;17.33;;;8.50;;
5785;SDS011;2919;48.630;9.000;2023-03-05T15:52:21;24.10;;;8.83;;
5785;SDS011;2919;48.630;9.000;2023-03-05T15:54:47;16.93;;;7.57;;
5785;SDS011;2919;48.630;9.000;2023-03-05T15:57:12;17.93;;;7.23;;
5785;SDS011;2919;48.630;9.000;2023-03-05T15:59:38;20.90;;;8.03;;
5785;SDS011;2919;48.630;9.000;2023-03-05T16:02:04;20.13;;;6.70;;
5785;SDS011;2919;48.630;9.000;2023-03-05T16:04:30;28.33;;;8.43;;
5785;SDS011;2919;48.630;9.000;2023-03-05T16:06:56;16.60;;;8.70;;
5785;SDS011;2919;48.630;9.000;2023-03-05T16:09:25;21.93;;;7.23;;
5785;SDS011;2919;48.630;9.000;2023-03-05T16:11:52;14.03;;;7.07;;
5785;SDS011;2919;48.630;9.000;2023-03-05T16:14:20;17.63;;;6.97;;
5785;SDS011;2919;48.630;9.000;2023-03-05T16:16:47;18.47;;;6.87;;
5785;SDS011;2919;48.630;9.000;2023-03-05T16:19:14;16.03;;;7.80;;
5785;SDS011;2919;48.630;9.000;2023-03-05T16:21:42;18.80;;;9.30;;
5785;SDS011;2919;48.630;9.000;2023-03-05T16:24:08;21.80;;;7.30;;
5785;SDS011;2919;48.630;9.000;2023-03-05T16:26:35;20.60;;;7.93;;
5785;SDS011;2919;48.630;9.000;2023-03-05T16:29:01;30.77;;;8.90;;
5785;SDS011;2919;48.630;9.000;2023-03-05T16:31:28;24.00;;;8.67;;
5785;SDS011;2919;48.630;9.000;2023-03-05T16:33:54;22.50;;;9.23;;
5785;SDS011;2919;48.630;9.000;2023-03-05T16:36:21;26.70;;;8.90;;
5785;SDS011;2919;48.630;9.000;2023-03-05T16:38:49;19.70;;;7.90;;